createdAt,value
2022-12-08T00:00:16.053Z,47.74
2022-12-08T00:02:44.612Z,47.93
2022-12-08T00:05:30.862Z,47.99
2022-12-08T00:08:17.146Z,48.83
2022-12-08T00:10:49.769Z,47.96
2022-12-08T00:13:17.569Z,48.29
2022-12-08T00:15:44.767Z,48.12
2022-12-08T00:18:11.995Z,48.93
2022-12-08T00:20:39.434Z,49.18
2022-12-08T00:23:06.619Z,49.63
2022-12-08T00:25:35.764Z,50.06
2022-12-08T00:28:03.250Z,48.90
2022-12-08T00:30:30.421Z,47.93
2022-12-08T00:32:57.559Z,48.12
2022-12-08T00:35:24.971Z,47.29
2022-12-08T00:37:57.544Z,47.25
2022-12-08T00:40:28.099Z,48.56
2022-12-08T00:42:56.329Z,48.71
2022-12-08T00:45:23.495Z,48.39
2022-12-08T00:47:50.934Z,48.78
2022-12-08T00:50:18.143Z,49.23
2022-12-08T00:52:45.285Z,48.86
2022-12-08T00:55:12.696Z,48.72
2022-12-08T00:57:39.831Z,48.52
2022-12-08T01:00:07.492Z,48.08
2022-12-08T01:02:35.296Z,47.99
2022-12-08T01:05:02.462Z,47.59
2022-12-08T01:07:29.755Z,47.44
2022-12-08T01:09:58.097Z,46.90
2022-12-08T01:12:25.298Z,47.35
2022-12-08T01:14:52.497Z,47.37
2022-12-08T01:17:19.897Z,48.23
2022-12-08T01:19:47.057Z,48.00
2022-12-08T01:22:14.173Z,47.87
2022-12-08T01:24:41.607Z,48.37
2022-12-08T01:27:08.752Z,48.27
2022-12-08T01:29:35.940Z,48.99
2022-12-08T01:32:03.381Z,48.64
2022-12-08T01:34:30.538Z,48.80
2022-12-08T01:36:57.839Z,49.06
2022-12-08T01:39:25.297Z,48.26
2022-12-08T01:41:52.536Z,48.57
2022-12-08T01:44:19.600Z,46.90
2022-12-08T01:46:49.914Z,48.42
2022-12-08T01:49:23.129Z,48.20
2022-12-08T01:52:11.090Z,48.31
2022-12-08T01:54:43.021Z,48.23
2022-12-08T01:57:11.733Z,47.42
2022-12-08T01:59:42.163Z,47.90
2022-12-08T02:02:09.880Z,48.10
2022-12-08T02:04:37.374Z,48.91
2022-12-08T02:07:07.988Z,47.62
2022-12-08T02:09:36.222Z,47.39
2022-12-08T02:12:03.817Z,47.94
2022-12-08T02:14:30.954Z,48.97
2022-12-08T02:17:00.885Z,50.05
2022-12-08T02:19:34.236Z,50.10
2022-12-08T02:22:07.132Z,49.45
2022-12-08T02:24:37.308Z,49.64
2022-12-08T02:27:27.538Z,48.67
2022-12-08T02:30:07.503Z,47.99
2022-12-08T02:32:34.685Z,48.00
2022-12-08T02:35:02.056Z,49.43
2022-12-08T02:37:30.865Z,49.27
2022-12-08T02:39:57.976Z,48.55
2022-12-08T02:42:38.621Z,48.46
2022-12-08T02:45:17.160Z,49.96
2022-12-08T02:47:44.776Z,50.57
2022-12-08T02:50:12.267Z,51.05
2022-12-08T02:52:41.402Z,50.32
2022-12-08T02:55:11.024Z,49.23
2022-12-08T02:58:04.565Z,49.20
2022-12-08T03:00:36.952Z,50.89
2022-12-08T03:03:04.148Z,50.66
2022-12-08T03:05:39.220Z,50.47
2022-12-08T03:08:15.165Z,49.91
2022-12-08T03:10:53.525Z,49.30
2022-12-08T03:13:21.440Z,48.86
2022-12-08T03:15:49.751Z,48.37
2022-12-08T03:18:17.443Z,47.57
2022-12-08T03:20:45.213Z,47.37
2022-12-08T03:23:12.788Z,48.25
2022-12-08T03:25:41.914Z,48.81
2022-12-08T03:28:09.230Z,48.90
2022-12-08T03:30:37.194Z,49.10
2022-12-08T03:33:06.937Z,48.85
2022-12-08T03:35:34.556Z,48.85
2022-12-08T03:38:03.356Z,48.71
2022-12-08T03:40:30.634Z,48.44
2022-12-08T03:42:57.776Z,48.46
2022-12-08T03:45:25.298Z,49.18
2022-12-08T03:47:52.484Z,49.41
2022-12-08T03:50:19.624Z,49.17
2022-12-08T03:52:47.108Z,48.37
2022-12-08T03:55:14.284Z,49.82
2022-12-08T03:57:41.609Z,50.23
2022-12-08T04:00:10.042Z,49.06
2022-12-08T04:02:37.554Z,48.53
2022-12-08T04:05:05.016Z,48.76
2022-12-08T04:07:32.234Z,48.62
2022-12-08T04:09:59.643Z,48.53
2022-12-08T04:12:26.814Z,48.97
2022-12-08T04:14:53.947Z,48.71
2022-12-08T04:17:21.404Z,48.30
2022-12-08T04:19:48.538Z,48.65
2022-12-08T04:22:15.668Z,48.38
2022-12-08T04:24:43.076Z,48.53
2022-12-08T04:27:10.248Z,48.83
2022-12-08T04:29:37.412Z,48.34
2022-12-08T04:32:05.088Z,48.22
2022-12-08T04:34:32.219Z,48.10
2022-12-08T04:36:59.393Z,48.21
2022-12-08T04:39:26.832Z,49.56
2022-12-08T04:41:54.008Z,48.82
2022-12-08T04:44:21.133Z,48.57
2022-12-08T04:46:48.625Z,48.67
2022-12-08T04:49:15.817Z,48.58
2022-12-08T04:51:42.998Z,48.48
2022-12-08T04:54:10.414Z,48.06
2022-12-08T04:56:37.544Z,48.33
2022-12-08T04:59:04.750Z,48.63
2022-12-08T05:01:32.452Z,49.09
2022-12-08T05:03:59.721Z,48.57
2022-12-08T05:06:26.920Z,48.81
2022-12-08T05:08:54.807Z,48.60
2022-12-08T05:11:21.976Z,48.56
2022-12-08T05:13:49.187Z,48.70
2022-12-08T05:16:16.677Z,48.89
2022-12-08T05:18:43.898Z,48.80
2022-12-08T05:21:11.144Z,48.70
2022-12-08T05:23:38.710Z,48.64
2022-12-08T05:26:05.971Z,48.87
2022-12-08T05:28:41.216Z,48.56
2022-12-08T05:31:10.726Z,49.10
2022-12-08T05:33:37.911Z,49.61
2022-12-08T05:36:05.190Z,49.94
2022-12-08T05:38:32.583Z,49.00
2022-12-08T05:40:59.750Z,48.78
2022-12-08T05:43:27.081Z,48.97
2022-12-08T05:45:54.717Z,49.99
2022-12-08T05:48:21.870Z,49.23
2022-12-08T05:50:50.915Z,49.04
2022-12-08T05:53:18.932Z,49.42
2022-12-08T05:55:46.493Z,49.80
2022-12-08T05:58:14.676Z,49.93
2022-12-08T06:00:42.366Z,50.32
2022-12-08T06:03:12.880Z,50.04
2022-12-08T06:05:40.616Z,49.90
2022-12-08T06:08:07.899Z,51.18
2022-12-08T06:10:35.564Z,50.89
2022-12-08T06:13:02.728Z,50.77
2022-12-08T06:15:29.891Z,51.24
2022-12-08T06:17:57.318Z,50.70
2022-12-08T06:20:24.450Z,51.00
2022-12-08T06:22:51.585Z,51.10
2022-12-08T06:25:19.054Z,50.40
2022-12-08T06:27:46.219Z,50.64
2022-12-08T06:30:13.548Z,50.30
2022-12-08T06:32:41.022Z,50.88
2022-12-08T06:35:08.393Z,51.86
2022-12-08T06:37:35.578Z,50.58
2022-12-08T06:40:03.638Z,50.53
2022-12-08T06:42:49.378Z,49.85
2022-12-08T06:45:17.536Z,50.09
2022-12-08T06:47:44.827Z,50.63
2022-12-08T06:50:12.613Z,50.23
2022-12-08T06:52:51.693Z,50.25
2022-12-08T06:55:57.369Z,51.52
2022-12-08T06:58:13.614Z,50.61
2022-12-08T07:00:41.189Z,50.71
2022-12-08T07:03:08.689Z,50.85
2022-12-08T07:05:36.583Z,50.27
2022-12-08T07:08:04.084Z,50.82
2022-12-08T07:10:31.288Z,51.74
2022-12-08T07:12:59.208Z,51.17
2022-12-08T07:15:26.432Z,51.44
2022-12-08T07:17:59.341Z,52.24
2022-12-08T07:20:27.549Z,52.90
2022-12-08T07:22:54.726Z,54.64
2022-12-08T07:25:21.883Z,54.11
2022-12-08T07:27:51.497Z,53.32
2022-12-08T07:30:18.925Z,54.52
2022-12-08T07:32:46.094Z,53.13
2022-12-08T07:35:13.551Z,53.60
2022-12-08T07:37:40.722Z,55.51
2022-12-08T07:40:08.598Z,52.67
2022-12-08T07:42:36.085Z,54.66
2022-12-08T07:45:03.415Z,53.44
2022-12-08T07:47:30.891Z,55.20
2022-12-08T07:49:58.367Z,54.42
2022-12-08T07:52:25.537Z,54.20
2022-12-08T07:54:52.725Z,53.20
2022-12-08T07:57:20.244Z,52.51
2022-12-08T07:59:47.450Z,53.31
2022-12-08T08:02:26.162Z,52.76
2022-12-08T08:04:54.014Z,52.61
2022-12-08T08:07:21.239Z,51.72
2022-12-08T08:09:48.463Z,51.63
2022-12-08T08:12:31.187Z,51.25
2022-12-08T08:15:00.084Z,51.64
2022-12-08T08:17:28.397Z,51.97
2022-12-08T08:19:55.707Z,53.45
2022-12-08T08:22:22.858Z,53.19
2022-12-08T08:24:50.329Z,52.25
2022-12-08T08:27:17.490Z,52.51
2022-12-08T08:29:44.787Z,52.42
2022-12-08T08:32:12.217Z,51.54
2022-12-08T08:34:39.355Z,51.34
2022-12-08T08:37:06.630Z,51.83
2022-12-08T08:39:34.165Z,53.27
2022-12-08T08:42:01.339Z,52.06
2022-12-08T08:44:28.556Z,52.40
2022-12-08T08:46:56.058Z,52.88
2022-12-08T08:49:23.264Z,52.19
2022-12-08T08:51:50.566Z,52.54
2022-12-08T08:54:18.003Z,53.81
2022-12-08T08:56:45.186Z,53.91
2022-12-08T08:59:12.365Z,55.68
2022-12-08T09:01:39.870Z,55.59
2022-12-08T09:04:07.338Z,56.10
2022-12-08T09:06:34.556Z,54.75
2022-12-08T09:09:02.085Z,54.34
2022-12-08T09:11:29.353Z,55.72
2022-12-08T09:13:56.493Z,56.08
2022-12-08T09:16:27.091Z,55.92
2022-12-08T09:18:54.331Z,54.90
2022-12-08T09:21:23.536Z,55.24
2022-12-08T09:23:51.273Z,54.33
2022-12-08T09:26:22.230Z,53.78
2022-12-08T09:28:50.161Z,53.28
2022-12-08T09:31:18.462Z,54.33
2022-12-08T09:33:45.696Z,54.26
2022-12-08T09:36:13.098Z,54.00
2022-12-08T09:38:40.670Z,53.87
2022-12-08T09:41:14.429Z,53.04
2022-12-08T09:43:52.458Z,53.33
2022-12-08T09:46:19.664Z,55.28
2022-12-08T09:48:49.648Z,54.03
2022-12-08T09:51:16.808Z,56.01
2022-12-08T09:54:07.858Z,53.20
2022-12-08T09:56:36.695Z,53.46
2022-12-08T09:59:05.458Z,52.13
2022-12-08T10:01:33.394Z,53.96
2022-12-08T10:04:01.235Z,54.94
2022-12-08T10:06:28.484Z,53.00
2022-12-08T10:08:55.604Z,51.96
2022-12-08T10:11:25.393Z,54.74
2022-12-08T10:13:56.107Z,53.20
2022-12-08T10:16:32.677Z,51.94
2022-12-08T10:19:20.222Z,51.68
2022-12-08T10:21:48.164Z,51.28
2022-12-08T10:24:34.996Z,51.04
2022-12-08T10:27:02.738Z,53.13
2022-12-08T10:29:29.984Z,52.37
2022-12-08T10:31:57.475Z,53.26
2022-12-08T10:34:26.277Z,51.72
2022-12-08T10:36:56.939Z,50.54
2022-12-08T10:39:33.677Z,50.66
2022-12-08T10:42:01.710Z,52.13
2022-12-08T10:44:29.159Z,52.21
2022-12-08T10:46:56.654Z,55.91
2022-12-08T10:49:27.817Z,52.77
2022-12-08T10:51:55.227Z,51.18
2022-12-08T10:54:33.164Z,53.78
2022-12-08T10:57:00.666Z,55.61
2022-12-08T10:59:27.899Z,56.02
2022-12-08T11:01:55.677Z,57.73
2022-12-08T11:04:38.433Z,57.86
2022-12-08T11:07:05.674Z,55.96
2022-12-08T11:09:37.315Z,53.36
2022-12-08T11:12:08.228Z,50.89
2022-12-08T11:14:44.638Z,52.74
2022-12-08T11:17:13.573Z,52.57
2022-12-08T11:19:45.930Z,55.22
2022-12-08T11:22:23.980Z,53.55
2022-12-08T11:25:02.113Z,52.75
2022-12-08T11:27:29.344Z,53.60
2022-12-08T11:29:56.941Z,53.95
2022-12-08T11:32:24.120Z,51.99
2022-12-08T11:35:04.948Z,53.77
2022-12-08T11:37:42.158Z,54.47
2022-12-08T11:40:23.949Z,54.20
2022-12-08T11:42:51.439Z,53.25
2022-12-08T11:45:20.656Z,51.18
2022-12-08T11:47:55.495Z,49.90
2022-12-08T11:50:27.549Z,50.16
2022-12-08T11:52:54.735Z,49.34
2022-12-08T11:55:27.908Z,51.94
2022-12-08T11:57:55.367Z,51.29
2022-12-08T12:00:22.830Z,50.40
2022-12-08T12:02:52.058Z,48.90
2022-12-08T12:05:47.507Z,49.42
2022-12-08T12:08:24.562Z,50.46
2022-12-08T12:10:54.388Z,49.65
2022-12-08T12:13:24.812Z,50.59
2022-12-08T12:16:10.815Z,51.58
2022-12-08T12:18:45.433Z,51.43
2022-12-08T12:21:16.950Z,49.67
2022-12-08T12:23:45.558Z,49.70
2022-12-08T12:26:22.884Z,49.27
2022-12-08T12:28:57.492Z,50.32
2022-12-08T12:31:29.048Z,47.66
2022-12-08T12:34:26.066Z,48.13
2022-12-08T12:37:05.375Z,49.55
2022-12-08T12:39:34.582Z,50.05
2022-12-08T12:42:02.277Z,48.13
2022-12-08T12:44:29.400Z,49.67
2022-12-08T13:00:29.743Z,49.90
2022-12-08T13:02:57.901Z,50.68
2022-12-08T13:05:29.269Z,48.59
2022-12-08T13:08:16.872Z,48.88
2022-12-08T13:10:59.019Z,48.13
2022-12-08T13:13:26.492Z,49.36
2022-12-08T13:16:19.232Z,49.64
2022-12-08T13:18:47.649Z,49.12
2022-12-08T13:21:16.577Z,50.81
2022-12-08T13:23:44.080Z,50.18
2022-12-08T13:26:11.500Z,49.79
2022-12-08T13:28:57.565Z,50.16
2022-12-08T13:31:36.896Z,49.03
2022-12-08T13:34:05.009Z,48.85
2022-12-08T13:36:33.219Z,47.17
2022-12-08T13:39:00.413Z,46.99
2022-12-08T13:41:41.657Z,46.90
2022-12-08T13:47:32.049Z,49.72
2022-12-08T13:56:59.345Z,48.73
2022-12-08T13:58:47.013Z,49.55
2022-12-08T14:01:15.675Z,48.45
2022-12-08T14:04:11.769Z,46.15
2022-12-08T14:06:37.242Z,45.68
2022-12-08T14:09:10.635Z,46.78
2022-12-08T14:11:39.233Z,48.55
2022-12-08T14:14:14.518Z,47.43
2022-12-08T14:16:50.550Z,46.73
2022-12-08T14:19:19.493Z,47.50
2022-12-08T14:21:47.926Z,47.77
2022-12-08T14:24:15.095Z,47.45
2022-12-08T14:26:42.516Z,46.48
2022-12-08T14:29:09.992Z,46.50
2022-12-08T14:31:37.241Z,48.72
2022-12-08T14:34:04.708Z,49.02
2022-12-08T14:36:33.610Z,48.41
2022-12-08T14:39:00.888Z,47.93
2022-12-08T14:41:32.282Z,50.39
2022-12-08T14:44:01.138Z,49.12
2022-12-08T14:46:28.781Z,47.98
2022-12-08T14:48:57.083Z,47.56
2022-12-08T14:51:27.391Z,49.23
2022-12-08T14:53:54.916Z,47.68
2022-12-08T14:56:40.879Z,49.31
2022-12-08T14:59:11.412Z,50.42
2022-12-08T15:01:38.784Z,48.92
2022-12-08T15:04:08.968Z,49.19
2022-12-08T15:06:36.390Z,48.95
2022-12-08T15:09:15.184Z,47.56
2022-12-08T15:11:42.641Z,49.08
2022-12-08T15:14:29.519Z,48.25
2022-12-08T15:16:56.945Z,49.45
2022-12-08T15:19:28.486Z,48.63
2022-12-08T15:21:56.923Z,48.73
2022-12-08T15:24:25.898Z,49.68
2022-12-08T15:26:53.170Z,49.58
2022-12-08T15:29:21.752Z,49.62
2022-12-08T15:31:49.662Z,49.82
2022-12-08T15:34:16.843Z,50.41
2022-12-08T15:36:45.641Z,51.23
2022-12-08T15:39:28.984Z,51.85
2022-12-08T15:41:56.193Z,52.05
2022-12-08T15:44:23.635Z,54.93
2022-12-08T15:46:50.865Z,54.46
2022-12-08T15:49:18.766Z,54.91
2022-12-08T15:51:46.393Z,54.12
2022-12-08T15:54:13.849Z,54.92
2022-12-08T15:57:17.878Z,52.59
2022-12-08T15:59:38.978Z,54.01
2022-12-08T16:02:06.139Z,54.16
2022-12-08T16:07:30.093Z,49.84
2022-12-08T16:09:57.801Z,49.56
2022-12-08T16:15:58.595Z,49.04
2022-12-08T16:18:24.070Z,49.71
2022-12-08T16:21:13.889Z,52.32
2022-12-08T16:23:44.088Z,52.06
2022-12-08T16:26:28.439Z,51.62
2022-12-08T16:29:00.504Z,51.27
2022-12-08T16:31:28.199Z,50.73
2022-12-08T16:33:55.402Z,52.18
2022-12-08T16:36:22.617Z,51.21
2022-12-08T16:38:50.115Z,49.84
2022-12-08T16:41:37.690Z,51.14
2022-12-08T16:44:05.698Z,49.87
2022-12-08T16:46:33.102Z,50.10
2022-12-08T16:49:00.404Z,48.36
2022-12-08T16:51:27.929Z,47.74
2022-12-08T16:53:55.503Z,47.05
2022-12-08T16:56:28.804Z,47.38
2022-12-08T16:58:57.983Z,47.44
2022-12-08T17:01:25.373Z,47.66
2022-12-08T17:04:22.419Z,47.89
2022-12-08T17:06:40.082Z,47.81
2022-12-08T17:09:07.278Z,49.08
2022-12-08T17:11:40.792Z,47.80
2022-12-08T17:14:10.248Z,47.31
2022-12-08T17:16:37.482Z,46.12
2022-12-08T17:19:04.692Z,47.03
2022-12-08T17:21:32.382Z,47.26
2022-12-08T17:23:59.680Z,47.37
2022-12-08T17:26:26.797Z,47.92
2022-12-08T17:29:01.818Z,48.01
2022-12-08T17:31:30.825Z,47.58
2022-12-08T17:34:02.929Z,52.27
2022-12-08T17:36:30.267Z,49.07
2022-12-08T17:38:58.692Z,49.91
2022-12-08T17:41:27.445Z,50.20
2022-12-08T17:43:54.683Z,49.85
2022-12-08T17:46:22.040Z,51.56
2022-12-08T17:48:49.616Z,51.91
2022-12-08T17:51:17.006Z,53.78
2022-12-08T17:53:44.297Z,52.70
2022-12-08T17:56:19.545Z,52.10
2022-12-08T17:58:51.260Z,51.68
2022-12-08T18:01:22.607Z,52.32
2022-12-08T18:03:51.548Z,52.64
2022-12-08T18:06:19.005Z,51.58
2022-12-08T18:08:46.199Z,50.96
2022-12-08T18:11:15.028Z,52.60
2022-12-08T18:13:42.195Z,52.15
2022-12-08T18:16:09.406Z,50.55
2022-12-08T18:18:36.866Z,49.53
2022-12-08T18:21:04.067Z,48.33
2022-12-08T18:23:31.383Z,48.17
2022-12-08T18:25:58.919Z,47.00
2022-12-08T18:28:26.211Z,46.49
2022-12-08T18:30:53.439Z,46.56
2022-12-08T18:33:20.920Z,45.80
2022-12-08T18:35:48.285Z,46.94
2022-12-08T18:38:15.493Z,45.92
2022-12-08T18:40:43.061Z,45.92
2022-12-08T18:43:10.198Z,47.42
2022-12-08T18:45:39.651Z,46.19
2022-12-08T18:48:08.519Z,45.70
2022-12-08T18:50:35.767Z,45.40
2022-12-08T18:53:03.095Z,45.67
2022-12-08T18:55:30.571Z,45.81
2022-12-08T18:57:57.716Z,46.84
2022-12-08T19:00:24.916Z,44.34
2022-12-08T19:02:52.579Z,44.32
2022-12-08T19:05:19.965Z,44.40
2022-12-08T19:07:47.210Z,43.74
2022-12-08T19:10:14.664Z,43.54
2022-12-08T19:12:41.839Z,43.47
2022-12-08T19:15:09.476Z,43.19
2022-12-08T19:17:37.040Z,44.51
2022-12-08T19:20:05.298Z,43.71
2022-12-08T19:22:32.955Z,43.26
2022-12-08T19:25:00.489Z,43.41
2022-12-08T19:27:29.060Z,43.79
2022-12-08T19:29:56.650Z,43.84
2022-12-08T19:32:24.631Z,44.92
2022-12-08T19:34:51.985Z,44.27
2022-12-08T19:37:19.732Z,44.35
2022-12-08T19:40:05.917Z,44.99
2022-12-08T19:42:51.900Z,45.03
2022-12-08T19:45:21.530Z,45.64
2022-12-08T19:47:49.268Z,45.47
2022-12-08T19:50:35.246Z,45.07
2022-12-08T19:53:07.263Z,45.65
2022-12-08T19:55:34.820Z,47.48
2022-12-08T19:58:02.234Z,48.70
2022-12-08T20:00:30.342Z,48.70
2022-12-08T20:02:58.310Z,47.55
2022-12-08T20:05:26.151Z,47.81
2022-12-08T20:07:55.692Z,47.79
2022-12-08T20:10:24.873Z,48.94
2022-12-08T20:13:12.137Z,51.95
2022-12-08T20:15:39.663Z,50.65
2022-12-08T20:18:06.914Z,50.29
2022-12-08T20:20:34.242Z,49.10
2022-12-08T20:23:01.879Z,49.44
2022-12-08T20:25:29.091Z,50.79
2022-12-08T20:27:56.526Z,50.13
2022-12-08T20:30:24.021Z,49.75
2022-12-08T20:32:51.319Z,51.72
2022-12-08T20:35:18.562Z,51.10
2022-12-08T20:37:46.002Z,50.86
2022-12-08T20:40:13.345Z,54.64
2022-12-08T20:42:40.563Z,53.73
2022-12-08T20:45:09.390Z,51.24
2022-12-08T20:47:37.137Z,51.53
2022-12-08T20:50:06.157Z,50.45
2022-12-08T20:52:34.147Z,50.04
2022-12-08T20:55:01.523Z,52.21
2022-12-08T20:57:28.985Z,51.50
2022-12-08T20:59:56.654Z,53.40
2022-12-08T21:02:24.042Z,51.10
2022-12-08T21:04:51.546Z,49.72
2022-12-08T21:07:19.216Z,48.93
2022-12-08T21:09:46.813Z,49.21
2022-12-08T21:12:14.198Z,47.81
2022-12-08T21:14:41.824Z,50.46
2022-12-08T21:17:08.973Z,50.21
2022-12-08T21:19:36.567Z,52.99
2022-12-08T21:22:04.108Z,51.35
2022-12-08T21:24:34.199Z,50.21
2022-12-08T21:27:01.923Z,50.11
2022-12-08T21:29:29.574Z,49.25
2022-12-08T21:31:57.368Z,51.68
2022-12-08T21:34:25.176Z,51.26
2022-12-08T21:36:53.193Z,49.98
2022-12-08T21:39:20.514Z,50.61
2022-12-08T21:42:06.633Z,51.29
2022-12-08T21:44:36.297Z,51.66
2022-12-08T21:47:03.982Z,53.10
2022-12-08T21:49:31.429Z,51.60
2022-12-08T21:51:59.187Z,51.45
2022-12-08T21:54:26.525Z,52.82
2022-12-08T21:56:53.808Z,50.47
2022-12-08T21:59:21.582Z,50.31
2022-12-08T22:01:49.145Z,50.06
2022-12-08T22:04:18.016Z,49.37
2022-12-08T22:06:45.582Z,52.93
2022-12-08T22:09:15.256Z,51.19
2022-12-08T22:11:43.531Z,51.85
2022-12-08T22:14:14.403Z,51.92
2022-12-08T22:16:43.367Z,50.10
2022-12-08T22:19:11.099Z,53.38
2022-12-08T22:21:38.439Z,52.93
2022-12-08T22:24:06.396Z,53.06
2022-12-08T22:26:33.965Z,52.32
2022-12-08T22:29:01.374Z,51.29
2022-12-08T22:31:29.223Z,52.95
2022-12-08T22:33:56.688Z,52.22
2022-12-08T22:36:24.631Z,50.56
2022-12-08T22:38:52.461Z,50.10
2022-12-08T22:41:20.237Z,53.98
2022-12-08T22:43:47.614Z,55.03
2022-12-08T22:46:16.077Z,51.56
2022-12-08T22:48:43.342Z,51.12
2022-12-08T22:51:10.682Z,51.01
2022-12-08T22:53:38.277Z,51.16
2022-12-08T22:56:06.053Z,50.73
2022-12-08T22:58:33.417Z,50.74
2022-12-08T23:01:00.983Z,52.20
2022-12-08T23:03:28.331Z,53.42
2022-12-08T23:05:55.677Z,52.79
2022-12-08T23:08:23.695Z,51.24
2022-12-08T23:10:51.488Z,50.29
2022-12-08T23:13:18.836Z,51.60
2022-12-08T23:15:46.369Z,51.05
2022-12-08T23:18:14.857Z,53.32
2022-12-08T23:20:42.281Z,51.28
2022-12-08T23:23:09.844Z,52.33
2022-12-08T23:25:43.227Z,52.13
2022-12-08T23:28:11.234Z,54.38
2022-12-08T23:30:41.835Z,53.17
2022-12-08T23:33:09.293Z,52.95
2022-12-08T23:35:36.853Z,52.27
2022-12-08T23:38:04.395Z,52.91
2022-12-08T23:40:31.943Z,52.17
2022-12-08T23:42:59.623Z,51.11
2022-12-08T23:45:27.259Z,51.80
2022-12-08T23:47:54.621Z,51.96
2022-12-08T23:50:22.430Z,53.87
2022-12-08T23:52:49.640Z,53.52
2022-12-08T23:55:17.071Z,53.05
2022-12-08T23:57:44.594Z,51.63
